sensor_id;sensor_type;location;lat;lon;timestamp;P1;durP1;ratioP1;P2;durP2;ratioP2
21168;SDS011;10742;51.816;8.662;2023-07-08T00:01:04;6.53;;;2.70;;
21168;SDS011;10742;51.816;8.662;2023-07-08T00:04:10;9.93;;;2.58;;
21168;SDS011;10742;51.816;8.662;2023-07-08T00:07:13;10.60;;;2.90;;
21168;SDS011;10742;51.816;8.662;2023-07-08T00:10:20;7.55;;;2.88;;
21168;SDS011;10742;51.816;8.662;2023-07-08T00:13:24;11.23;;;3.00;;
21168;SDS011;10742;51.816;8.662;2023-07-08T00:16:27;4.78;;;2.60;;
21168;SDS011;10742;51.816;8.662;2023-07-08T00:19:29;4.47;;;2.53;;
21168;SDS011;10742;51.816;8.662;2023-07-08T00:22:31;8.38;;;2.60;;
21168;SDS011;10742;51.816;8.662;2023-07-08T00:25:36;6.88;;;2.65;;
21168;SDS011;10742;51.816;8.662;2023-07-08T00:28:39;6.03;;;2.70;;
21168;SDS011;10742;51.816;8.662;2023-07-08T00:31:42;5.50;;;2.50;;
21168;SDS011;10742;51.816;8.662;2023-07-08T00:34:44;4.82;;;2.90;;
21168;SDS011;10742;51.816;8.662;2023-07-08T00:37:47;5.13;;;2.47;;
21168;SDS011;10742;51.816;8.662;2023-07-08T00:40:57;3.88;;;2.53;;
21168;SDS011;10742;51.816;8.662;2023-07-08T00:44:01;3.80;;;2.47;;
21168;SDS011;10742;51.816;8.662;2023-07-08T00:47:04;3.35;;;2.50;;
21168;SDS011;10742;51.816;8.662;2023-07-08T00:50:11;6.97;;;2.50;;
21168;SDS011;10742;51.816;8.662;2023-07-08T00:53:24;3.13;;;2.45;;
21168;SDS011;10742;51.816;8.662;2023-07-08T00:56:37;5.60;;;2.33;;
21168;SDS011;10742;51.816;8.662;2023-07-08T00:59:53;6.13;;;2.63;;
21168;SDS011;10742;51.816;8.662;2023-07-08T01:02:59;3.47;;;2.47;;
21168;SDS011;10742;51.816;8.662;2023-07-08T01:06:01;4.25;;;2.30;;
21168;SDS011;10742;51.816;8.662;2023-07-08T01:09:05;3.95;;;2.40;;
21168;SDS011;10742;51.816;8.662;2023-07-08T01:12:13;8.55;;;2.70;;
21168;SDS011;10742;51.816;8.662;2023-07-08T01:15:17;5.82;;;2.55;;
21168;SDS011;10742;51.816;8.662;2023-07-08T01:18:22;5.43;;;2.47;;
21168;SDS011;10742;51.816;8.662;2023-07-08T01:24:47;4.97;;;2.63;;
21168;SDS011;10742;51.816;8.662;2023-07-08T01:27:51;7.25;;;2.60;;
21168;SDS011;10742;51.816;8.662;2023-07-08T01:30:55;4.13;;;2.60;;
21168;SDS011;10742;51.816;8.662;2023-07-08T01:33:59;4.95;;;2.53;;
21168;SDS011;10742;51.816;8.662;2023-07-08T01:37:02;5.25;;;2.63;;
21168;SDS011;10742;51.816;8.662;2023-07-08T01:40:25;8.43;;;2.90;;
21168;SDS011;10742;51.816;8.662;2023-07-08T01:43:36;4.38;;;2.70;;
21168;SDS011;10742;51.816;8.662;2023-07-08T01:46:39;4.32;;;2.50;;
21168;SDS011;10742;51.816;8.662;2023-07-08T01:49:42;5.38;;;2.65;;
21168;SDS011;10742;51.816;8.662;2023-07-08T01:52:47;4.57;;;2.60;;
21168;SDS011;10742;51.816;8.662;2023-07-08T01:55:51;4.43;;;2.50;;
21168;SDS011;10742;51.816;8.662;2023-07-08T01:58:54;5.80;;;2.70;;
21168;SDS011;10742;51.816;8.662;2023-07-08T02:01:56;6.53;;;2.90;;
21168;SDS011;10742;51.816;8.662;2023-07-08T02:04:59;5.33;;;2.87;;
21168;SDS011;10742;51.816;8.662;2023-07-08T02:08:01;6.73;;;2.73;;
21168;SDS011;10742;51.816;8.662;2023-07-08T02:11:03;4.67;;;2.60;;
21168;SDS011;10742;51.816;8.662;2023-07-08T02:14:05;6.53;;;3.13;;
21168;SDS011;10742;51.816;8.662;2023-07-08T02:17:09;5.30;;;3.00;;
21168;SDS011;10742;51.816;8.662;2023-07-08T02:20:11;7.60;;;3.00;;
21168;SDS011;10742;51.816;8.662;2023-07-08T02:23:14;7.13;;;2.63;;
21168;SDS011;10742;51.816;8.662;2023-07-08T02:26:16;6.07;;;2.80;;
21168;SDS011;10742;51.816;8.662;2023-07-08T02:29:19;7.60;;;3.10;;
21168;SDS011;10742;51.816;8.662;2023-07-08T02:32:21;7.90;;;3.03;;
21168;SDS011;10742;51.816;8.662;2023-07-08T02:35:27;7.13;;;2.90;;
21168;SDS011;10742;51.816;8.662;2023-07-08T02:38:31;4.53;;;2.80;;
21168;SDS011;10742;51.816;8.662;2023-07-08T02:41:33;10.23;;;3.40;;
21168;SDS011;10742;51.816;8.662;2023-07-08T02:44:36;4.60;;;2.73;;
21168;SDS011;10742;51.816;8.662;2023-07-08T02:47:38;4.90;;;2.97;;
21168;SDS011;10742;51.816;8.662;2023-07-08T02:50:43;4.37;;;2.77;;
21168;SDS011;10742;51.816;8.662;2023-07-08T02:53:47;5.53;;;2.80;;
21168;SDS011;10742;51.816;8.662;2023-07-08T02:56:51;7.17;;;3.00;;
21168;SDS011;10742;51.816;8.662;2023-07-08T02:59:53;6.33;;;2.73;;
21168;SDS011;10742;51.816;8.662;2023-07-08T03:02:56;6.50;;;3.00;;
21168;SDS011;10742;51.816;8.662;2023-07-08T03:05:59;4.50;;;2.93;;
21168;SDS011;10742;51.816;8.662;2023-07-08T03:09:07;5.57;;;3.10;;
21168;SDS011;10742;51.816;8.662;2023-07-08T03:12:10;4.87;;;2.90;;
21168;SDS011;10742;51.816;8.662;2023-07-08T03:15:13;7.27;;;3.23;;
21168;SDS011;10742;51.816;8.662;2023-07-08T03:18:16;6.43;;;3.10;;
21168;SDS011;10742;51.816;8.662;2023-07-08T03:21:19;5.20;;;2.83;;
21168;SDS011;10742;51.816;8.662;2023-07-08T03:24:22;6.07;;;3.07;;
21168;SDS011;10742;51.816;8.662;2023-07-08T03:27:24;7.90;;;2.97;;
21168;SDS011;10742;51.816;8.662;2023-07-08T03:30:27;9.20;;;3.27;;
21168;SDS011;10742;51.816;8.662;2023-07-08T03:33:30;5.20;;;3.10;;
21168;SDS011;10742;51.816;8.662;2023-07-08T03:36:32;6.53;;;3.43;;
21168;SDS011;10742;51.816;8.662;2023-07-08T03:39:34;5.73;;;3.43;;
21168;SDS011;10742;51.816;8.662;2023-07-08T03:42:37;9.67;;;3.50;;
21168;SDS011;10742;51.816;8.662;2023-07-08T03:45:40;8.00;;;3.53;;
21168;SDS011;10742;51.816;8.662;2023-07-08T03:48:47;6.43;;;3.40;;
21168;SDS011;10742;51.816;8.662;2023-07-08T03:51:51;10.47;;;3.87;;
21168;SDS011;10742;51.816;8.662;2023-07-08T03:54:55;5.07;;;3.50;;
21168;SDS011;10742;51.816;8.662;2023-07-08T03:57:58;4.80;;;3.20;;
21168;SDS011;10742;51.816;8.662;2023-07-08T04:01:03;7.37;;;3.50;;
21168;SDS011;10742;51.816;8.662;2023-07-08T04:04:08;6.17;;;3.57;;
21168;SDS011;10742;51.816;8.662;2023-07-08T04:07:13;6.23;;;3.40;;
21168;SDS011;10742;51.816;8.662;2023-07-08T04:10:15;6.30;;;3.10;;
21168;SDS011;10742;51.816;8.662;2023-07-08T04:13:18;11.50;;;3.37;;
21168;SDS011;10742;51.816;8.662;2023-07-08T04:16:22;7.23;;;3.33;;
21168;SDS011;10742;51.816;8.662;2023-07-08T04:19:27;8.70;;;3.20;;
21168;SDS011;10742;51.816;8.662;2023-07-08T04:22:29;7.33;;;3.47;;
21168;SDS011;10742;51.816;8.662;2023-07-08T04:25:31;4.40;;;3.07;;
21168;SDS011;10742;51.816;8.662;2023-07-08T04:28:34;10.03;;;3.33;;
21168;SDS011;10742;51.816;8.662;2023-07-08T04:31:36;6.57;;;3.60;;
21168;SDS011;10742;51.816;8.662;2023-07-08T04:34:38;4.23;;;2.87;;
21168;SDS011;10742;51.816;8.662;2023-07-08T04:37:41;4.67;;;2.47;;
21168;SDS011;10742;51.816;8.662;2023-07-08T04:40:43;11.23;;;3.17;;
21168;SDS011;10742;51.816;8.662;2023-07-08T04:43:45;6.87;;;3.20;;
21168;SDS011;10742;51.816;8.662;2023-07-08T04:46:52;5.97;;;2.77;;
21168;SDS011;10742;51.816;8.662;2023-07-08T04:49:59;6.30;;;2.60;;
21168;SDS011;10742;51.816;8.662;2023-07-08T04:53:01;5.27;;;2.73;;
21168;SDS011;10742;51.816;8.662;2023-07-08T04:56:04;3.93;;;2.63;;
21168;SDS011;10742;51.816;8.662;2023-07-08T04:59:08;5.17;;;2.63;;
21168;SDS011;10742;51.816;8.662;2023-07-08T05:02:11;7.33;;;2.87;;
21168;SDS011;10742;51.816;8.662;2023-07-08T05:05:14;5.50;;;2.60;;
21168;SDS011;10742;51.816;8.662;2023-07-08T05:08:17;4.97;;;2.88;;
21168;SDS011;10742;51.816;8.662;2023-07-08T05:11:19;5.53;;;2.80;;
21168;SDS011;10742;51.816;8.662;2023-07-08T05:14:21;4.85;;;2.90;;
21168;SDS011;10742;51.816;8.662;2023-07-08T05:17:24;7.70;;;2.60;;
21168;SDS011;10742;51.816;8.662;2023-07-08T05:20:26;4.97;;;2.72;;
21168;SDS011;10742;51.816;8.662;2023-07-08T05:23:29;5.10;;;2.50;;
21168;SDS011;10742;51.816;8.662;2023-07-08T05:26:32;4.47;;;2.47;;
21168;SDS011;10742;51.816;8.662;2023-07-08T05:29:34;5.15;;;2.88;;
21168;SDS011;10742;51.816;8.662;2023-07-08T05:32:37;4.28;;;2.90;;
21168;SDS011;10742;51.816;8.662;2023-07-08T05:35:39;5.07;;;2.72;;
21168;SDS011;10742;51.816;8.662;2023-07-08T05:38:42;4.50;;;2.80;;
21168;SDS011;10742;51.816;8.662;2023-07-08T05:41:44;6.20;;;2.40;;
21168;SDS011;10742;51.816;8.662;2023-07-08T05:44:47;5.35;;;2.70;;
21168;SDS011;10742;51.816;8.662;2023-07-08T05:47:49;6.10;;;3.03;;
21168;SDS011;10742;51.816;8.662;2023-07-08T05:50:52;7.60;;;2.67;;
21168;SDS011;10742;51.816;8.662;2023-07-08T05:53:54;8.32;;;3.00;;
21168;SDS011;10742;51.816;8.662;2023-07-08T05:56:56;6.55;;;2.70;;
21168;SDS011;10742;51.816;8.662;2023-07-08T05:59:59;4.47;;;2.70;;
21168;SDS011;10742;51.816;8.662;2023-07-08T06:03:01;5.28;;;2.92;;
21168;SDS011;10742;51.816;8.662;2023-07-08T06:06:04;5.57;;;2.90;;
21168;SDS011;10742;51.816;8.662;2023-07-08T06:09:09;9.88;;;2.90;;
21168;SDS011;10742;51.816;8.662;2023-07-08T06:12:32;6.18;;;2.88;;
21168;SDS011;10742;51.816;8.662;2023-07-08T06:15:53;3.85;;;2.67;;
21168;SDS011;10742;51.816;8.662;2023-07-08T06:19:14;6.43;;;2.95;;
21168;SDS011;10742;51.816;8.662;2023-07-08T06:22:18;10.85;;;2.88;;
21168;SDS011;10742;51.816;8.662;2023-07-08T06:25:49;10.02;;;2.75;;
21168;SDS011;10742;51.816;8.662;2023-07-08T06:29:10;3.88;;;2.70;;
21168;SDS011;10742;51.816;8.662;2023-07-08T06:32:31;8.32;;;3.08;;
21168;SDS011;10742;51.816;8.662;2023-07-08T06:35:53;6.53;;;2.70;;
21168;SDS011;10742;51.816;8.662;2023-07-08T06:39:14;5.30;;;2.67;;
21168;SDS011;10742;51.816;8.662;2023-07-08T06:42:16;5.25;;;2.47;;
21168;SDS011;10742;51.816;8.662;2023-07-08T06:45:27;6.00;;;2.88;;
21168;SDS011;10742;51.816;8.662;2023-07-08T06:48:30;11.07;;;2.90;;
21168;SDS011;10742;51.816;8.662;2023-07-08T06:51:32;5.63;;;2.45;;
21168;SDS011;10742;51.816;8.662;2023-07-08T06:54:34;6.00;;;2.50;;
21168;SDS011;10742;51.816;8.662;2023-07-08T06:57:37;6.20;;;3.00;;
21168;SDS011;10742;51.816;8.662;2023-07-08T07:00:43;5.72;;;2.70;;
21168;SDS011;10742;51.816;8.662;2023-07-08T07:03:46;4.88;;;2.70;;
21168;SDS011;10742;51.816;8.662;2023-07-08T07:06:49;7.60;;;2.60;;
21168;SDS011;10742;51.816;8.662;2023-07-08T07:09:53;5.97;;;2.80;;
21168;SDS011;10742;51.816;8.662;2023-07-08T07:12:55;3.75;;;2.45;;
21168;SDS011;10742;51.816;8.662;2023-07-08T07:15:57;6.38;;;2.60;;
21168;SDS011;10742;51.816;8.662;2023-07-08T07:19:00;3.70;;;2.72;;
21168;SDS011;10742;51.816;8.662;2023-07-08T07:22:02;4.30;;;2.63;;
21168;SDS011;10742;51.816;8.662;2023-07-08T07:25:05;4.90;;;2.42;;
21168;SDS011;10742;51.816;8.662;2023-07-08T07:28:08;4.60;;;2.47;;
21168;SDS011;10742;51.816;8.662;2023-07-08T07:31:10;4.72;;;2.47;;
21168;SDS011;10742;51.816;8.662;2023-07-08T07:34:13;6.07;;;2.83;;
21168;SDS011;10742;51.816;8.662;2023-07-08T07:37:17;6.10;;;2.60;;
21168;SDS011;10742;51.816;8.662;2023-07-08T07:40:20;8.40;;;2.70;;
21168;SDS011;10742;51.816;8.662;2023-07-08T07:43:23;5.53;;;3.15;;
21168;SDS011;10742;51.816;8.662;2023-07-08T07:46:25;7.72;;;3.00;;
21168;SDS011;10742;51.816;8.662;2023-07-08T07:49:27;4.75;;;2.63;;
21168;SDS011;10742;51.816;8.662;2023-07-08T07:52:30;5.40;;;3.00;;
21168;SDS011;10742;51.816;8.662;2023-07-08T07:55:32;4.68;;;2.70;;
21168;SDS011;10742;51.816;8.662;2023-07-08T07:58:34;4.40;;;2.88;;
21168;SDS011;10742;51.816;8.662;2023-07-08T08:01:37;4.22;;;2.75;;
21168;SDS011;10742;51.816;8.662;2023-07-08T08:04:40;9.00;;;3.20;;
21168;SDS011;10742;51.816;8.662;2023-07-08T08:07:43;4.55;;;2.95;;
21168;SDS011;10742;51.816;8.662;2023-07-08T08:10:45;4.70;;;2.58;;
21168;SDS011;10742;51.816;8.662;2023-07-08T08:13:47;6.35;;;3.22;;
21168;SDS011;10742;51.816;8.662;2023-07-08T08:16:51;3.20;;;2.70;;
21168;SDS011;10742;51.816;8.662;2023-07-08T08:19:53;4.32;;;2.97;;
21168;SDS011;10742;51.816;8.662;2023-07-08T08:22:56;4.70;;;2.92;;
21168;SDS011;10742;51.816;8.662;2023-07-08T08:25:58;6.50;;;2.90;;
21168;SDS011;10742;51.816;8.662;2023-07-08T08:29:00;7.72;;;3.10;;
21168;SDS011;10742;51.816;8.662;2023-07-08T08:32:03;3.45;;;2.60;;
21168;SDS011;10742;51.816;8.662;2023-07-08T08:35:06;6.45;;;3.40;;
21168;SDS011;10742;51.816;8.662;2023-07-08T08:38:09;3.72;;;2.75;;
21168;SDS011;10742;51.816;8.662;2023-07-08T08:41:16;5.18;;;2.97;;
21168;SDS011;10742;51.816;8.662;2023-07-08T08:44:22;5.82;;;3.13;;
21168;SDS011;10742;51.816;8.662;2023-07-08T08:47:38;5.57;;;2.90;;
21168;SDS011;10742;51.816;8.662;2023-07-08T08:50:55;4.13;;;2.70;;
21168;SDS011;10742;51.816;8.662;2023-07-08T08:54:01;10.65;;;3.03;;
21168;SDS011;10742;51.816;8.662;2023-07-08T08:57:45;11.82;;;3.40;;
21168;SDS011;10742;51.816;8.662;2023-07-08T09:01:00;7.05;;;3.10;;
21168;SDS011;10742;51.816;8.662;2023-07-08T09:04:19;6.07;;;3.38;;
21168;SDS011;10742;51.816;8.662;2023-07-08T09:07:25;3.78;;;2.90;;
21168;SDS011;10742;51.816;8.662;2023-07-08T09:10:35;5.68;;;3.05;;
21168;SDS011;10742;51.816;8.662;2023-07-08T09:13:39;6.57;;;2.92;;
21168;SDS011;10742;51.816;8.662;2023-07-08T09:16:46;5.45;;;3.00;;
21168;SDS011;10742;51.816;8.662;2023-07-08T09:20:23;5.35;;;2.85;;
21168;SDS011;10742;51.816;8.662;2023-07-08T09:23:49;5.38;;;2.85;;
21168;SDS011;10742;51.816;8.662;2023-07-08T09:27:15;9.20;;;3.20;;
21168;SDS011;10742;51.816;8.662;2023-07-08T09:30:36;6.78;;;3.17;;
21168;SDS011;10742;51.816;8.662;2023-07-08T09:34:14;4.85;;;3.17;;
21168;SDS011;10742;51.816;8.662;2023-07-08T09:37:37;5.60;;;3.10;;
21168;SDS011;10742;51.816;8.662;2023-07-08T09:40:59;4.60;;;3.00;;
21168;SDS011;10742;51.816;8.662;2023-07-08T09:44:27;4.60;;;2.80;;
21168;SDS011;10742;51.816;8.662;2023-07-08T09:47:55;10.52;;;2.95;;
21168;SDS011;10742;51.816;8.662;2023-07-08T09:51:17;5.68;;;3.10;;
21168;SDS011;10742;51.816;8.662;2023-07-08T09:54:39;6.55;;;3.25;;
21168;SDS011;10742;51.816;8.662;2023-07-08T09:58:01;6.72;;;3.30;;
21168;SDS011;10742;51.816;8.662;2023-07-08T10:01:11;6.85;;;3.60;;
21168;SDS011;10742;51.816;8.662;2023-07-08T10:04:17;4.88;;;3.15;;
21168;SDS011;10742;51.816;8.662;2023-07-08T10:07:21;9.93;;;3.28;;
21168;SDS011;10742;51.816;8.662;2023-07-08T10:10:28;7.75;;;3.42;;
21168;SDS011;10742;51.816;8.662;2023-07-08T10:16:41;7.20;;;3.42;;
21168;SDS011;10742;51.816;8.662;2023-07-08T10:19:44;5.53;;;3.00;;
21168;SDS011;10742;51.816;8.662;2023-07-08T10:22:54;9.20;;;3.83;;
21168;SDS011;10742;51.816;8.662;2023-07-08T10:26:11;5.82;;;3.17;;
21168;SDS011;10742;51.816;8.662;2023-07-08T10:32:39;5.25;;;3.40;;
21168;SDS011;10742;51.816;8.662;2023-07-08T10:36:11;4.80;;;3.20;;
21168;SDS011;10742;51.816;8.662;2023-07-08T10:49:32;6.65;;;3.13;;
21168;SDS011;10742;51.816;8.662;2023-07-08T10:56:37;5.60;;;3.17;;
21168;SDS011;10742;51.816;8.662;2023-07-08T10:59:59;5.35;;;3.40;;
21168;SDS011;10742;51.816;8.662;2023-07-08T11:06:44;7.22;;;3.30;;
21168;SDS011;10742;51.816;8.662;2023-07-08T11:10:16;8.80;;;3.55;;
21168;SDS011;10742;51.816;8.662;2023-07-08T11:13:25;6.35;;;3.53;;
21168;SDS011;10742;51.816;8.662;2023-07-08T11:16:32;5.93;;;3.47;;
21168;SDS011;10742;51.816;8.662;2023-07-08T11:19:40;11.55;;;3.65;;
21168;SDS011;10742;51.816;8.662;2023-07-08T11:23:03;5.78;;;3.47;;
21168;SDS011;10742;51.816;8.662;2023-07-08T11:26:28;9.25;;;3.25;;
21168;SDS011;10742;51.816;8.662;2023-07-08T11:32:48;6.35;;;3.60;;
21168;SDS011;10742;51.816;8.662;2023-07-08T11:35:59;7.50;;;3.70;;
21168;SDS011;10742;51.816;8.662;2023-07-08T11:39:04;5.20;;;3.38;;
21168;SDS011;10742;51.816;8.662;2023-07-08T11:42:50;5.57;;;3.45;;
21168;SDS011;10742;51.816;8.662;2023-07-08T11:46:02;7.03;;;3.67;;
21168;SDS011;10742;51.816;8.662;2023-07-08T11:49:11;6.68;;;3.78;;
21168;SDS011;10742;51.816;8.662;2023-07-08T11:52:18;7.72;;;3.67;;
21168;SDS011;10742;51.816;8.662;2023-07-08T11:55:26;7.47;;;3.33;;
21168;SDS011;10742;51.816;8.662;2023-07-08T12:08:02;7.78;;;3.58;;
21168;SDS011;10742;51.816;8.662;2023-07-08T12:11:14;8.32;;;3.53;;
21168;SDS011;10742;51.816;8.662;2023-07-08T12:14:16;7.00;;;3.90;;
21168;SDS011;10742;51.816;8.662;2023-07-08T12:17:18;7.00;;;3.63;;
21168;SDS011;10742;51.816;8.662;2023-07-08T12:20:23;6.10;;;3.58;;
21168;SDS011;10742;51.816;8.662;2023-07-08T12:23:29;8.15;;;4.22;;
21168;SDS011;10742;51.816;8.662;2023-07-08T12:26:32;5.95;;;3.75;;
21168;SDS011;10742;51.816;8.662;2023-07-08T12:29:37;8.88;;;3.97;;
21168;SDS011;10742;51.816;8.662;2023-07-08T12:32:40;7.20;;;3.92;;
21168;SDS011;10742;51.816;8.662;2023-07-08T12:35:45;8.60;;;4.00;;
21168;SDS011;10742;51.816;8.662;2023-07-08T12:39:08;6.80;;;4.05;;
21168;SDS011;10742;51.816;8.662;2023-07-08T12:42:32;11.57;;;3.92;;
21168;SDS011;10742;51.816;8.662;2023-07-08T12:45:53;7.43;;;3.78;;
21168;SDS011;10742;51.816;8.662;2023-07-08T12:49:16;5.65;;;3.58;;
21168;SDS011;10742;51.816;8.662;2023-07-08T12:52:39;8.15;;;3.65;;
21168;SDS011;10742;51.816;8.662;2023-07-08T12:56:00;6.50;;;3.70;;
21168;SDS011;10742;51.816;8.662;2023-07-08T12:59:22;5.95;;;3.90;;
21168;SDS011;10742;51.816;8.662;2023-07-08T13:02:25;6.57;;;3.85;;
21168;SDS011;10742;51.816;8.662;2023-07-08T13:05:30;6.53;;;3.90;;
21168;SDS011;10742;51.816;8.662;2023-07-08T13:08:37;7.78;;;3.60;;
21168;SDS011;10742;51.816;8.662;2023-07-08T13:11:41;6.35;;;3.83;;
21168;SDS011;10742;51.816;8.662;2023-07-08T13:14:47;8.18;;;3.95;;
21168;SDS011;10742;51.816;8.662;2023-07-08T13:17:50;10.90;;;4.07;;
21168;SDS011;10742;51.816;8.662;2023-07-08T13:20:53;9.90;;;4.00;;
21168;SDS011;10742;51.816;8.662;2023-07-08T13:23:56;8.50;;;3.97;;
21168;SDS011;10742;51.816;8.662;2023-07-08T13:26:59;6.93;;;4.07;;
21168;SDS011;10742;51.816;8.662;2023-07-08T13:30:18;6.07;;;3.63;;
21168;SDS011;10742;51.816;8.662;2023-07-08T13:33:23;7.75;;;3.90;;
21168;SDS011;10742;51.816;8.662;2023-07-08T13:36:33;7.82;;;4.03;;
21168;SDS011;10742;51.816;8.662;2023-07-08T13:39:37;8.25;;;3.85;;
21168;SDS011;10742;51.816;8.662;2023-07-08T13:42:46;6.32;;;3.78;;
21168;SDS011;10742;51.816;8.662;2023-07-08T13:45:49;7.60;;;3.50;;
21168;SDS011;10742;51.816;8.662;2023-07-08T13:48:52;7.03;;;3.92;;
21168;SDS011;10742;51.816;8.662;2023-07-08T13:52:05;9.77;;;4.78;;
21168;SDS011;10742;51.816;8.662;2023-07-08T13:55:19;6.10;;;3.65;;
21168;SDS011;10742;51.816;8.662;2023-07-08T13:58:25;6.18;;;3.85;;
21168;SDS011;10742;51.816;8.662;2023-07-08T14:01:29;9.00;;;4.20;;
21168;SDS011;10742;51.816;8.662;2023-07-08T14:04:34;8.68;;;4.10;;
21168;SDS011;10742;51.816;8.662;2023-07-08T14:07:37;8.57;;;4.00;;
21168;SDS011;10742;51.816;8.662;2023-07-08T14:10:40;7.15;;;4.10;;
21168;SDS011;10742;51.816;8.662;2023-07-08T14:13:42;11.95;;;3.75;;
21168;SDS011;10742;51.816;8.662;2023-07-08T14:16:46;7.30;;;3.63;;
21168;SDS011;10742;51.816;8.662;2023-07-08T14:19:51;8.27;;;4.20;;
21168;SDS011;10742;51.816;8.662;2023-07-08T14:22:53;7.53;;;3.70;;
21168;SDS011;10742;51.816;8.662;2023-07-08T14:25:56;6.03;;;3.58;;
21168;SDS011;10742;51.816;8.662;2023-07-08T14:28:58;8.25;;;4.07;;
21168;SDS011;10742;51.816;8.662;2023-07-08T14:32:01;7.38;;;3.80;;
21168;SDS011;10742;51.816;8.662;2023-07-08T14:38:29;7.75;;;3.70;;
21168;SDS011;10742;51.816;8.662;2023-07-08T14:41:31;9.93;;;4.10;;
21168;SDS011;10742;51.816;8.662;2023-07-08T14:44:34;8.43;;;3.85;;
21168;SDS011;10742;51.816;8.662;2023-07-08T14:47:39;6.75;;;3.88;;
21168;SDS011;10742;51.816;8.662;2023-07-08T14:50:42;8.60;;;4.18;;
21168;SDS011;10742;51.816;8.662;2023-07-08T14:53:45;7.75;;;3.78;;
21168;SDS011;10742;51.816;8.662;2023-07-08T14:56:47;7.45;;;4.13;;
21168;SDS011;10742;51.816;8.662;2023-07-08T14:59:51;6.93;;;3.83;;
21168;SDS011;10742;51.816;8.662;2023-07-08T15:02:53;8.68;;;4.22;;
21168;SDS011;10742;51.816;8.662;2023-07-08T15:05:56;7.18;;;4.20;;
21168;SDS011;10742;51.816;8.662;2023-07-08T15:08:59;8.35;;;4.10;;
21168;SDS011;10742;51.816;8.662;2023-07-08T15:12:01;7.38;;;3.95;;
21168;SDS011;10742;51.816;8.662;2023-07-08T15:15:04;7.07;;;4.07;;
21168;SDS011;10742;51.816;8.662;2023-07-08T15:18:11;7.45;;;4.18;;
21168;SDS011;10742;51.816;8.662;2023-07-08T15:21:14;7.43;;;4.00;;
21168;SDS011;10742;51.816;8.662;2023-07-08T15:24:17;6.22;;;3.83;;
21168;SDS011;10742;51.816;8.662;2023-07-08T15:27:19;7.75;;;4.20;;
21168;SDS011;10742;51.816;8.662;2023-07-08T15:30:26;7.32;;;4.13;;
21168;SDS011;10742;51.816;8.662;2023-07-08T15:33:29;7.53;;;4.25;;
21168;SDS011;10742;51.816;8.662;2023-07-08T15:36:31;6.32;;;4.07;;
21168;SDS011;10742;51.816;8.662;2023-07-08T15:39:34;6.47;;;4.13;;
21168;SDS011;10742;51.816;8.662;2023-07-08T15:42:36;7.40;;;4.15;;
21168;SDS011;10742;51.816;8.662;2023-07-08T15:45:38;8.18;;;4.35;;
21168;SDS011;10742;51.816;8.662;2023-07-08T15:48:42;7.00;;;4.00;;
21168;SDS011;10742;51.816;8.662;2023-07-08T15:51:44;7.18;;;4.22;;
21168;SDS011;10742;51.816;8.662;2023-07-08T15:54:49;7.90;;;4.25;;
21168;SDS011;10742;51.816;8.662;2023-07-08T15:57:52;6.07;;;3.75;;
21168;SDS011;10742;51.816;8.662;2023-07-08T16:00:59;9.07;;;4.00;;
21168;SDS011;10742;51.816;8.662;2023-07-08T16:04:03;9.52;;;4.40;;
21168;SDS011;10742;51.816;8.662;2023-07-08T16:07:07;10.85;;;4.43;;
21168;SDS011;10742;51.816;8.662;2023-07-08T16:10:11;9.52;;;4.10;;
21168;SDS011;10742;51.816;8.662;2023-07-08T16:13:13;7.22;;;4.32;;
21168;SDS011;10742;51.816;8.662;2023-07-08T16:16:16;7.18;;;4.00;;
21168;SDS011;10742;51.816;8.662;2023-07-08T16:19:37;7.88;;;4.30;;
21168;SDS011;10742;51.816;8.662;2023-07-08T16:22:59;8.82;;;4.30;;
21168;SDS011;10742;51.816;8.662;2023-07-08T16:26:20;6.03;;;3.80;;
21168;SDS011;10742;51.816;8.662;2023-07-08T16:29:41;6.50;;;3.80;;
21168;SDS011;10742;51.816;8.662;2023-07-08T16:33:02;10.80;;;4.40;;
21168;SDS011;10742;51.816;8.662;2023-07-08T16:36:24;7.50;;;3.92;;
21168;SDS011;10742;51.816;8.662;2023-07-08T16:39:46;7.60;;;3.88;;
21168;SDS011;10742;51.816;8.662;2023-07-08T16:43:24;12.18;;;5.20;;
21168;SDS011;10742;51.816;8.662;2023-07-08T16:46:49;8.88;;;4.00;;
21168;SDS011;10742;51.816;8.662;2023-07-08T16:50:11;10.70;;;4.85;;
21168;SDS011;10742;51.816;8.662;2023-07-08T16:53:34;7.13;;;3.92;;
21168;SDS011;10742;51.816;8.662;2023-07-08T16:56:56;7.80;;;4.20;;
21168;SDS011;10742;51.816;8.662;2023-07-08T16:59:59;8.75;;;4.28;;
21168;SDS011;10742;51.816;8.662;2023-07-08T17:03:02;7.25;;;3.90;;
21168;SDS011;10742;51.816;8.662;2023-07-08T17:06:05;5.97;;;3.80;;
21168;SDS011;10742;51.816;8.662;2023-07-08T17:09:09;8.88;;;4.35;;
21168;SDS011;10742;51.816;8.662;2023-07-08T17:12:14;9.05;;;4.10;;
21168;SDS011;10742;51.816;8.662;2023-07-08T17:15:16;6.25;;;4.00;;
21168;SDS011;10742;51.816;8.662;2023-07-08T17:18:19;8.20;;;3.95;;
21168;SDS011;10742;51.816;8.662;2023-07-08T17:21:23;6.90;;;4.07;;
21168;SDS011;10742;51.816;8.662;2023-07-08T17:24:25;5.22;;;3.47;;
21168;SDS011;10742;51.816;8.662;2023-07-08T17:27:28;8.30;;;4.25;;
21168;SDS011;10742;51.816;8.662;2023-07-08T17:30:30;7.63;;;4.10;;
21168;SDS011;10742;51.816;8.662;2023-07-08T17:33:33;8.15;;;4.28;;
21168;SDS011;10742;51.816;8.662;2023-07-08T17:36:36;6.10;;;3.80;;
21168;SDS011;10742;51.816;8.662;2023-07-08T17:39:39;7.35;;;4.22;;
21168;SDS011;10742;51.816;8.662;2023-07-08T17:42:41;12.68;;;4.72;;
21168;SDS011;10742;51.816;8.662;2023-07-08T17:45:49;9.55;;;4.07;;
21168;SDS011;10742;51.816;8.662;2023-07-08T17:48:52;8.73;;;3.90;;
21168;SDS011;10742;51.816;8.662;2023-07-08T17:51:55;7.45;;;3.90;;
21168;SDS011;10742;51.816;8.662;2023-07-08T17:54:57;11.57;;;4.13;;
21168;SDS011;10742;51.816;8.662;2023-07-08T17:57:59;8.15;;;3.78;;
21168;SDS011;10742;51.816;8.662;2023-07-08T18:01:07;8.77;;;4.00;;
21168;SDS011;10742;51.816;8.662;2023-07-08T18:04:10;7.63;;;4.10;;
21168;SDS011;10742;51.816;8.662;2023-07-08T18:07:13;8.38;;;3.95;;
21168;SDS011;10742;51.816;8.662;2023-07-08T18:10:16;6.90;;;4.30;;
21168;SDS011;10742;51.816;8.662;2023-07-08T18:13:20;9.18;;;4.80;;
21168;SDS011;10742;51.816;8.662;2023-07-08T18:16:25;11.27;;;5.45;;
21168;SDS011;10742;51.816;8.662;2023-07-08T18:19:29;10.55;;;5.20;;
21168;SDS011;10742;51.816;8.662;2023-07-08T18:22:31;10.15;;;5.05;;
21168;SDS011;10742;51.816;8.662;2023-07-08T18:25:33;7.40;;;4.45;;
21168;SDS011;10742;51.816;8.662;2023-07-08T18:28:36;8.80;;;4.60;;
21168;SDS011;10742;51.816;8.662;2023-07-08T18:31:39;11.48;;;4.80;;
21168;SDS011;10742;51.816;8.662;2023-07-08T18:34:45;11.98;;;5.03;;
21168;SDS011;10742;51.816;8.662;2023-07-08T18:37:48;8.65;;;4.13;;
21168;SDS011;10742;51.816;8.662;2023-07-08T18:40:52;10.93;;;4.35;;
21168;SDS011;10742;51.816;8.662;2023-07-08T18:43:55;7.93;;;4.38;;
21168;SDS011;10742;51.816;8.662;2023-07-08T18:46:58;8.10;;;4.10;;
21168;SDS011;10742;51.816;8.662;2023-07-08T18:50:00;9.57;;;4.20;;
21168;SDS011;10742;51.816;8.662;2023-07-08T18:53:03;7.53;;;4.47;;
21168;SDS011;10742;51.816;8.662;2023-07-08T18:56:13;9.15;;;4.50;;
21168;SDS011;10742;51.816;8.662;2023-07-08T18:59:17;11.07;;;5.10;;
21168;SDS011;10742;51.816;8.662;2023-07-08T19:05:33;9.90;;;4.38;;
21168;SDS011;10742;51.816;8.662;2023-07-08T19:08:36;9.52;;;5.18;;
21168;SDS011;10742;51.816;8.662;2023-07-08T19:11:39;8.15;;;4.63;;
21168;SDS011;10742;51.816;8.662;2023-07-08T19:14:42;9.88;;;4.80;;
21168;SDS011;10742;51.816;8.662;2023-07-08T19:17:45;9.02;;;4.70;;
21168;SDS011;10742;51.816;8.662;2023-07-08T19:20:47;8.00;;;4.68;;
21168;SDS011;10742;51.816;8.662;2023-07-08T19:23:52;11.43;;;5.43;;
21168;SDS011;10742;51.816;8.662;2023-07-08T19:26:56;9.57;;;4.93;;
21168;SDS011;10742;51.816;8.662;2023-07-08T19:29:58;13.68;;;5.10;;